sensor_id;sensor_type;location;lat;lon;timestamp;temperature;humidity
70807;DHT22;58882;52.170;5.386;2023-04-01T00:01:31;15.70;62.90
70807;DHT22;58882;52.170;5.386;2023-04-01T00:04:11;15.70;63.00
70807;DHT22;58882;52.170;5.386;2023-04-01T00:06:58;15.80;62.90
70807;DHT22;58882;52.170;5.386;2023-04-01T00:09:39;15.80;62.80
70807;DHT22;58882;52.170;5.386;2023-04-01T00:12:26;15.80;62.90
70807;DHT22;58882;52.170;5.386;2023-04-01T00:15:08;15.80;63.00
70807;DHT22;58882;52.170;5.386;2023-04-01T00:17:56;15.80;63.10
70807;DHT22;58882;52.170;5.386;2023-04-01T00:20:36;15.80;63.10
70807;DHT22;58882;52.170;5.386;2023-04-01T00:23:24;15.80;63.10
70807;DHT22;58882;52.170;5.386;2023-04-01T00:26:04;15.90;63.10
70807;DHT22;58882;52.170;5.386;2023-04-01T00:28:52;15.90;63.00
70807;DHT22;58882;52.170;5.386;2023-04-01T00:31:32;15.90;63.80
70807;DHT22;58882;52.170;5.386;2023-04-01T00:34:19;15.90;62.80
70807;DHT22;58882;52.170;5.386;2023-04-01T00:37:00;15.90;62.90
70807;DHT22;58882;52.170;5.386;2023-04-01T00:39:47;15.80;62.90
70807;DHT22;58882;52.170;5.386;2023-04-01T00:42:27;15.90;63.00
70807;DHT22;58882;52.170;5.386;2023-04-01T00:45:33;15.90;62.80
70807;DHT22;58882;52.170;5.386;2023-04-01T00:48:17;15.80;62.70
70807;DHT22;58882;52.170;5.386;2023-04-01T00:51:06;15.80;62.60
70807;DHT22;58882;52.170;5.386;2023-04-01T00:53:50;15.80;62.60
70807;DHT22;58882;52.170;5.386;2023-04-01T00:56:48;15.70;63.60
70807;DHT22;58882;52.170;5.386;2023-04-01T00:59:39;15.70;62.70
70807;DHT22;58882;52.170;5.386;2023-04-01T01:02:27;15.70;62.60
70807;DHT22;58882;52.170;5.386;2023-04-01T01:05:16;15.70;62.60
70807;DHT22;58882;52.170;5.386;2023-04-01T01:08:34;15.70;62.50
70807;DHT22;58882;52.170;5.386;2023-04-01T01:11:26;15.70;62.50
70807;DHT22;58882;52.170;5.386;2023-04-01T01:17:11;15.70;62.50
70807;DHT22;58882;52.170;5.386;2023-04-01T01:32:16;15.80;62.50
70807;DHT22;58882;52.170;5.386;2023-04-01T01:38:17;15.80;62.60
70807;DHT22;58882;52.170;5.386;2023-04-01T01:40:59;15.80;62.20
70807;DHT22;58882;52.170;5.386;2023-04-01T01:43:56;15.70;62.00
70807;DHT22;58882;52.170;5.386;2023-04-01T01:46:30;15.70;62.20
70807;DHT22;58882;52.170;5.386;2023-04-01T01:49:24;15.70;62.30
70807;DHT22;58882;52.170;5.386;2023-04-01T01:52:05;15.70;62.30
70807;DHT22;58882;52.170;5.386;2023-04-01T01:54:54;15.70;62.30
70807;DHT22;58882;52.170;5.386;2023-04-01T01:57:38;15.70;62.40
70807;DHT22;58882;52.170;5.386;2023-04-01T02:00:34;15.70;62.30
70807;DHT22;58882;52.170;5.386;2023-04-01T02:03:08;15.70;62.30
70807;DHT22;58882;52.170;5.386;2023-04-01T02:06:07;15.70;62.40
70807;DHT22;58882;52.170;5.386;2023-04-01T02:09:04;15.70;62.30
70807;DHT22;58882;52.170;5.386;2023-04-01T02:11:49;15.70;62.30
70807;DHT22;58882;52.170;5.386;2023-04-01T02:14:59;15.70;62.30
70807;DHT22;58882;52.170;5.386;2023-04-01T02:17:43;15.70;62.40
70807;DHT22;58882;52.170;5.386;2023-04-01T02:20:32;15.70;62.50
70807;DHT22;58882;52.170;5.386;2023-04-01T02:23:13;15.70;62.50
70807;DHT22;58882;52.170;5.386;2023-04-01T02:26:02;15.70;62.30
70807;DHT22;58882;52.170;5.386;2023-04-01T02:28:59;15.70;62.30
70807;DHT22;58882;52.170;5.386;2023-04-01T02:31:39;15.70;62.30
70807;DHT22;58882;52.170;5.386;2023-04-01T02:34:34;15.70;62.30
70807;DHT22;58882;52.170;5.386;2023-04-01T02:37:08;15.70;62.20
70807;DHT22;58882;52.170;5.386;2023-04-01T02:40:02;15.70;62.20
70807;DHT22;58882;52.170;5.386;2023-04-01T02:42:37;15.70;62.10
70807;DHT22;58882;52.170;5.386;2023-04-01T02:45:31;15.70;62.00
70807;DHT22;58882;52.170;5.386;2023-04-01T02:48:11;15.70;61.90
70807;DHT22;58882;52.170;5.386;2023-04-01T02:50:58;15.70;62.00
70807;DHT22;58882;52.170;5.386;2023-04-01T02:53:38;15.70;61.90
70807;DHT22;58882;52.170;5.386;2023-04-01T02:56:25;15.70;61.90
70807;DHT22;58882;52.170;5.386;2023-04-01T02:59:06;15.70;61.90
70807;DHT22;58882;52.170;5.386;2023-04-01T03:01:53;15.70;61.90
70807;DHT22;58882;52.170;5.386;2023-04-01T03:04:33;15.70;62.00
70807;DHT22;58882;52.170;5.386;2023-04-01T03:07:20;15.70;62.10
70807;DHT22;58882;52.170;5.386;2023-04-01T03:10:00;15.70;62.30
70807;DHT22;58882;52.170;5.386;2023-04-01T03:12:47;15.70;62.10
70807;DHT22;58882;52.170;5.386;2023-04-01T03:15:27;15.70;61.90
70807;DHT22;58882;52.170;5.386;2023-04-01T03:18:21;15.80;61.90
70807;DHT22;58882;52.170;5.386;2023-04-01T03:21:22;15.80;62.90
70807;DHT22;58882;52.170;5.386;2023-04-01T03:24:10;15.70;62.60
70807;DHT22;58882;52.170;5.386;2023-04-01T03:26:43;15.80;62.00
70807;DHT22;58882;52.170;5.386;2023-04-01T03:29:36;15.80;61.90
70807;DHT22;58882;52.170;5.386;2023-04-01T03:32:18;15.80;61.90
70807;DHT22;58882;52.170;5.386;2023-04-01T03:35:05;15.80;61.90
70807;DHT22;58882;52.170;5.386;2023-04-01T03:37:46;15.80;61.90
70807;DHT22;58882;52.170;5.386;2023-04-01T03:40:33;15.90;62.00
70807;DHT22;58882;52.170;5.386;2023-04-01T03:43:17;15.90;62.00
70807;DHT22;58882;52.170;5.386;2023-04-01T03:46:04;15.90;62.00
70807;DHT22;58882;52.170;5.386;2023-04-01T03:48:44;15.90;62.00
70807;DHT22;58882;52.170;5.386;2023-04-01T03:51:31;16.00;62.00
70807;DHT22;58882;52.170;5.386;2023-04-01T03:54:11;16.00;61.90
70807;DHT22;58882;52.170;5.386;2023-04-01T03:57:00;16.00;61.90
70807;DHT22;58882;52.170;5.386;2023-04-01T03:59:40;16.00;61.90
70807;DHT22;58882;52.170;5.386;2023-04-01T04:02:27;16.00;61.80
70807;DHT22;58882;52.170;5.386;2023-04-01T04:05:08;16.00;62.60
70807;DHT22;58882;52.170;5.386;2023-04-01T04:07:55;16.10;61.70
70807;DHT22;58882;52.170;5.386;2023-04-01T04:10:36;16.00;61.80
70807;DHT22;58882;52.170;5.386;2023-04-01T04:13:30;16.10;62.70
70807;DHT22;58882;52.170;5.386;2023-04-01T04:16:04;16.10;61.70
70807;DHT22;58882;52.170;5.386;2023-04-01T04:19:05;16.10;61.60
70807;DHT22;58882;52.170;5.386;2023-04-01T04:21:40;16.10;61.60
70807;DHT22;58882;52.170;5.386;2023-04-01T04:24:35;16.10;61.60
70807;DHT22;58882;52.170;5.386;2023-04-01T04:27:11;16.10;61.80
70807;DHT22;58882;52.170;5.386;2023-04-01T04:30:13;16.10;61.80
70807;DHT22;58882;52.170;5.386;2023-04-01T04:32:46;16.10;61.70
70807;DHT22;58882;52.170;5.386;2023-04-01T04:35:40;16.10;61.70
70807;DHT22;58882;52.170;5.386;2023-04-01T04:38:21;16.10;61.60
70807;DHT22;58882;52.170;5.386;2023-04-01T04:41:10;16.10;61.70
70807;DHT22;58882;52.170;5.386;2023-04-01T04:43:54;16.10;61.90
70807;DHT22;58882;52.170;5.386;2023-04-01T04:46:49;16.10;62.10
70807;DHT22;58882;52.170;5.386;2023-04-01T04:49:23;16.10;62.00
70807;DHT22;58882;52.170;5.386;2023-04-01T04:52:16;16.10;62.10
70807;DHT22;58882;52.170;5.386;2023-04-01T04:54:50;16.10;62.10
70807;DHT22;58882;52.170;5.386;2023-04-01T04:57:45;16.10;62.10
70807;DHT22;58882;52.170;5.386;2023-04-01T05:00:18;16.10;62.10
70807;DHT22;58882;52.170;5.386;2023-04-01T05:03:16;16.10;62.10
70807;DHT22;58882;52.170;5.386;2023-04-01T05:05:51;16.10;63.00
70807;DHT22;58882;52.170;5.386;2023-04-01T05:08:46;16.10;62.10
70807;DHT22;58882;52.170;5.386;2023-04-01T05:11:26;16.10;62.10
70807;DHT22;58882;52.170;5.386;2023-04-01T05:14:15;16.10;62.10
70807;DHT22;58882;52.170;5.386;2023-04-01T05:17:03;16.10;62.10
70807;DHT22;58882;52.170;5.386;2023-04-01T05:19:57;16.10;62.20
70807;DHT22;58882;52.170;5.386;2023-04-01T05:22:31;16.10;62.10
70807;DHT22;58882;52.170;5.386;2023-04-01T05:25:25;16.10;62.10
70807;DHT22;58882;52.170;5.386;2023-04-01T05:28:06;16.10;62.10
70807;DHT22;58882;52.170;5.386;2023-04-01T05:31:00;16.10;62.10
70807;DHT22;58882;52.170;5.386;2023-04-01T05:33:43;16.10;62.10
70807;DHT22;58882;52.170;5.386;2023-04-01T05:36:30;16.10;62.10
70807;DHT22;58882;52.170;5.386;2023-04-01T05:39:03;16.10;62.10
70807;DHT22;58882;52.170;5.386;2023-04-01T05:41:56;16.10;62.10
70807;DHT22;58882;52.170;5.386;2023-04-01T05:44:39;16.10;62.10
70807;DHT22;58882;52.170;5.386;2023-04-01T05:47:44;16.10;62.10
70807;DHT22;58882;52.170;5.386;2023-04-01T05:50:18;16.10;62.10
70807;DHT22;58882;52.170;5.386;2023-04-01T05:53:13;16.10;62.10
70807;DHT22;58882;52.170;5.386;2023-04-01T05:55:46;16.10;62.10
70807;DHT22;58882;52.170;5.386;2023-04-01T05:58:47;16.10;62.10
70807;DHT22;58882;52.170;5.386;2023-04-01T06:01:23;16.10;62.10
70807;DHT22;58882;52.170;5.386;2023-04-01T06:04:17;16.10;62.20
70807;DHT22;58882;52.170;5.386;2023-04-01T06:07:16;16.10;62.10
70807;DHT22;58882;52.170;5.386;2023-04-01T06:09:57;16.10;62.10
70807;DHT22;58882;52.170;5.386;2023-04-01T06:12:50;16.10;62.10
70807;DHT22;58882;52.170;5.386;2023-04-01T06:15:39;16.10;62.10
70807;DHT22;58882;52.170;5.386;2023-04-01T06:27:54;16.10;62.10
70807;DHT22;58882;52.170;5.386;2023-04-01T06:30:47;16.10;62.10
70807;DHT22;58882;52.170;5.386;2023-04-01T06:36:47;16.10;62.00
70807;DHT22;58882;52.170;5.386;2023-04-01T06:42:50;16.10;61.80
70807;DHT22;58882;52.170;5.386;2023-04-01T06:46:37;16.20;61.90
70807;DHT22;58882;52.170;5.386;2023-04-01T06:56:00;16.10;61.70
70807;DHT22;58882;52.170;5.386;2023-04-01T07:02:12;16.20;61.70
70807;DHT22;58882;52.170;5.386;2023-04-01T07:05:04;16.20;61.60
70807;DHT22;58882;52.170;5.386;2023-04-01T07:07:54;16.20;61.50
70807;DHT22;58882;52.170;5.386;2023-04-01T07:10:53;16.20;61.50
70807;DHT22;58882;52.170;5.386;2023-04-01T07:14:00;16.30;61.60
70807;DHT22;58882;52.170;5.386;2023-04-01T07:20:05;16.40;61.40
70807;DHT22;58882;52.170;5.386;2023-04-01T07:23:22;16.40;61.30
70807;DHT22;58882;52.170;5.386;2023-04-01T07:26:24;16.40;61.10
70807;DHT22;58882;52.170;5.386;2023-04-01T07:29:26;16.40;61.10
70807;DHT22;58882;52.170;5.386;2023-04-01T07:38:19;16.40;61.00
70807;DHT22;58882;52.170;5.386;2023-04-01T07:42:08;16.40;61.00
70807;DHT22;58882;52.170;5.386;2023-04-01T07:45:21;16.50;61.10
70807;DHT22;58882;52.170;5.386;2023-04-01T07:54:20;16.50;61.00
70807;DHT22;58882;52.170;5.386;2023-04-01T07:57:23;16.50;60.90
70807;DHT22;58882;52.170;5.386;2023-04-01T08:03:50;16.50;60.90
70807;DHT22;58882;52.170;5.386;2023-04-01T08:06:33;16.50;60.90
70807;DHT22;58882;52.170;5.386;2023-04-01T08:19:21;16.60;60.90
70807;DHT22;58882;52.170;5.386;2023-04-01T08:22:26;16.60;60.80
70807;DHT22;58882;52.170;5.386;2023-04-01T08:25:25;16.60;60.80
70807;DHT22;58882;52.170;5.386;2023-04-01T08:28:39;16.60;60.70
70807;DHT22;58882;52.170;5.386;2023-04-01T08:31:37;16.50;60.70
70807;DHT22;58882;52.170;5.386;2023-04-01T08:34:33;16.60;60.70
70807;DHT22;58882;52.170;5.386;2023-04-01T08:37:29;16.60;60.80
70807;DHT22;58882;52.170;5.386;2023-04-01T08:40:48;16.60;60.80
70807;DHT22;58882;52.170;5.386;2023-04-01T08:47:21;16.60;60.80
70807;DHT22;58882;52.170;5.386;2023-04-01T08:50:26;16.60;60.70
70807;DHT22;58882;52.170;5.386;2023-04-01T08:56:58;16.70;60.70
70807;DHT22;58882;52.170;5.386;2023-04-01T09:00:25;16.70;60.60
70807;DHT22;58882;52.170;5.386;2023-04-01T09:03:36;16.70;60.50
70807;DHT22;58882;52.170;5.386;2023-04-01T09:09:49;16.70;60.50
70807;DHT22;58882;52.170;5.386;2023-04-01T09:19:29;16.70;60.40
70807;DHT22;58882;52.170;5.386;2023-04-01T09:41:34;16.90;60.30
70807;DHT22;58882;52.170;5.386;2023-04-01T09:44:36;16.90;60.20
70807;DHT22;58882;52.170;5.386;2023-04-01T09:47:24;17.00;60.20
70807;DHT22;58882;52.170;5.386;2023-04-01T09:50:39;17.00;60.00
70807;DHT22;58882;52.170;5.386;2023-04-01T09:57:12;17.10;59.90
70807;DHT22;58882;52.170;5.386;2023-04-01T10:03:55;17.20;59.90
70807;DHT22;58882;52.170;5.386;2023-04-01T10:15:35;17.60;59.00
70807;DHT22;58882;52.170;5.386;2023-04-01T10:35:01;17.90;57.80
70807;DHT22;58882;52.170;5.386;2023-04-01T10:42:03;17.90;57.70
70807;DHT22;58882;52.170;5.386;2023-04-01T10:51:17;18.00;57.50
70807;DHT22;58882;52.170;5.386;2023-04-01T10:54:21;18.10;57.50
70807;DHT22;58882;52.170;5.386;2023-04-01T11:14:31;18.40;56.20
70807;DHT22;58882;52.170;5.386;2023-04-01T11:23:50;18.40;56.30
70807;DHT22;58882;52.170;5.386;2023-04-01T11:33:19;18.40;56.10
70807;DHT22;58882;52.170;5.386;2023-04-01T11:36:37;18.40;56.10
70807;DHT22;58882;52.170;5.386;2023-04-01T11:42:58;18.50;55.60
70807;DHT22;58882;52.170;5.386;2023-04-01T11:46:20;18.50;55.50
70807;DHT22;58882;52.170;5.386;2023-04-01T11:55:50;18.50;55.40
70807;DHT22;58882;52.170;5.386;2023-04-01T12:04:58;18.50;55.30
70807;DHT22;58882;52.170;5.386;2023-04-01T12:14:08;18.50;55.50
70807;DHT22;58882;52.170;5.386;2023-04-01T12:24:19;18.50;55.40
70807;DHT22;58882;52.170;5.386;2023-04-01T12:36:13;18.50;55.60
70807;DHT22;58882;52.170;5.386;2023-04-01T12:39:26;18.40;55.70
70807;DHT22;58882;52.170;5.386;2023-04-01T12:45:48;18.50;55.70
70807;DHT22;58882;52.170;5.386;2023-04-01T12:54:56;18.50;55.80
70807;DHT22;58882;52.170;5.386;2023-04-01T13:01:22;18.60;55.80
70807;DHT22;58882;52.170;5.386;2023-04-01T13:05:09;18.60;55.80
70807;DHT22;58882;52.170;5.386;2023-04-01T13:26:29;18.50;55.60
70807;DHT22;58882;52.170;5.386;2023-04-01T13:29:40;18.50;55.80
70807;DHT22;58882;52.170;5.386;2023-04-01T13:45:24;18.40;56.00
70807;DHT22;58882;52.170;5.386;2023-04-01T14:00:55;18.40;56.50
70807;DHT22;58882;52.170;5.386;2023-04-01T14:10:35;18.30;56.50
70807;DHT22;58882;52.170;5.386;2023-04-01T14:13:34;18.40;56.50
70807;DHT22;58882;52.170;5.386;2023-04-01T14:17:07;18.40;56.50
70807;DHT22;58882;52.170;5.386;2023-04-01T14:47:26;18.40;55.70
70807;DHT22;58882;52.170;5.386;2023-04-01T14:50:22;18.40;55.70
70807;DHT22;58882;52.170;5.386;2023-04-01T14:53:17;18.40;55.60
70807;DHT22;58882;52.170;5.386;2023-04-01T14:56:35;18.40;55.70
70807;DHT22;58882;52.170;5.386;2023-04-01T14:59:34;18.40;55.70
70807;DHT22;58882;52.170;5.386;2023-04-01T15:08:37;18.40;55.50
70807;DHT22;58882;52.170;5.386;2023-04-01T15:32:01;18.40;55.30
70807;DHT22;58882;52.170;5.386;2023-04-01T15:34:50;18.40;55.30
70807;DHT22;58882;52.170;5.386;2023-04-01T15:50:22;18.30;54.90
70807;DHT22;58882;52.170;5.386;2023-04-01T15:53:22;18.30;55.00
70807;DHT22;58882;52.170;5.386;2023-04-01T16:08:44;18.30;54.90
70807;DHT22;58882;52.170;5.386;2023-04-01T16:14:43;18.30;55.00
70807;DHT22;58882;52.170;5.386;2023-04-01T16:20:49;18.30;54.90
70807;DHT22;58882;52.170;5.386;2023-04-01T16:23:59;18.30;54.80
70807;DHT22;58882;52.170;5.386;2023-04-01T16:30:32;18.30;54.80
70807;DHT22;58882;52.170;5.386;2023-04-01T16:34:31;18.30;54.60
70807;DHT22;58882;52.170;5.386;2023-04-01T16:37:09;18.30;54.70
70807;DHT22;58882;52.170;5.386;2023-04-01T16:43:46;18.20;54.60
70807;DHT22;58882;52.170;5.386;2023-04-01T16:49:39;18.20;54.50
70807;DHT22;58882;52.170;5.386;2023-04-01T16:52:36;18.20;54.60
70807;DHT22;58882;52.170;5.386;2023-04-01T17:05:08;18.10;54.40
70807;DHT22;58882;52.170;5.386;2023-04-01T17:08:22;18.10;54.40
70807;DHT22;58882;52.170;5.386;2023-04-01T17:11:26;18.10;54.40
70807;DHT22;58882;52.170;5.386;2023-04-01T17:17:34;18.10;54.30
70807;DHT22;58882;52.170;5.386;2023-04-01T17:23:42;18.00;54.20
70807;DHT22;58882;52.170;5.386;2023-04-01T17:26:40;18.00;54.10
70807;DHT22;58882;52.170;5.386;2023-04-01T17:42:04;18.00;53.90
70807;DHT22;58882;52.170;5.386;2023-04-01T17:45:02;18.00;54.00
70807;DHT22;58882;52.170;5.386;2023-04-01T17:48:08;18.00;53.90
70807;DHT22;58882;52.170;5.386;2023-04-01T17:51:19;17.90;53.80
70807;DHT22;58882;52.170;5.386;2023-04-01T17:54:25;17.90;53.60
70807;DHT22;58882;52.170;5.386;2023-04-01T17:57:46;17.90;53.70
70807;DHT22;58882;52.170;5.386;2023-04-01T18:00:51;17.90;53.80
70807;DHT22;58882;52.170;5.386;2023-04-01T18:04:14;17.90;53.60
70807;DHT22;58882;52.170;5.386;2023-04-01T18:07:49;17.90;53.60
70807;DHT22;58882;52.170;5.386;2023-04-01T18:11:13;17.80;53.50
70807;DHT22;58882;52.170;5.386;2023-04-01T18:23:20;17.80;53.60
70807;DHT22;58882;52.170;5.386;2023-04-01T18:26:13;17.80;53.40
70807;DHT22;58882;52.170;5.386;2023-04-01T18:29:24;17.80;53.40
70807;DHT22;58882;52.170;5.386;2023-04-01T18:35:24;17.80;53.30
70807;DHT22;58882;52.170;5.386;2023-04-01T18:38:13;17.80;53.20
70807;DHT22;58882;52.170;5.386;2023-04-01T18:41:19;17.80;53.10
70807;DHT22;58882;52.170;5.386;2023-04-01T18:50:55;17.70;53.00
70807;DHT22;58882;52.170;5.386;2023-04-01T18:53:57;17.70;53.00
70807;DHT22;58882;52.170;5.386;2023-04-01T18:56:41;17.70;53.00
70807;DHT22;58882;52.170;5.386;2023-04-01T18:59:41;17.70;52.80
70807;DHT22;58882;52.170;5.386;2023-04-01T19:05:29;17.70;53.90
70807;DHT22;58882;52.170;5.386;2023-04-01T19:08:33;17.70;52.60
70807;DHT22;58882;52.170;5.386;2023-04-01T19:11:48;17.70;52.70
70807;DHT22;58882;52.170;5.386;2023-04-01T19:26:25;17.60;52.50
70807;DHT22;58882;52.170;5.386;2023-04-01T19:34:52;17.60;52.20
70807;DHT22;58882;52.170;5.386;2023-04-01T19:37:56;17.60;52.30
70807;DHT22;58882;52.170;5.386;2023-04-01T19:46:36;17.60;52.30
70807;DHT22;58882;52.170;5.386;2023-04-01T19:52:33;17.50;52.90
70807;DHT22;58882;52.170;5.386;2023-04-01T19:55:44;17.30;52.00
70807;DHT22;58882;52.170;5.386;2023-04-01T20:01:44;17.00;53.50
70807;DHT22;58882;52.170;5.386;2023-04-01T20:04:33;16.80;52.70
70807;DHT22;58882;52.170;5.386;2023-04-01T20:07:38;16.80;53.00
70807;DHT22;58882;52.170;5.386;2023-04-01T20:10:42;16.60;53.10
70807;DHT22;58882;52.170;5.386;2023-04-01T20:13:55;16.50;53.30
70807;DHT22;58882;52.170;5.386;2023-04-01T20:19:39;16.40;53.70
70807;DHT22;58882;52.170;5.386;2023-04-01T20:25:51;16.30;53.80
70807;DHT22;58882;52.170;5.386;2023-04-01T20:32:04;16.20;53.90
70807;DHT22;58882;52.170;5.386;2023-04-01T20:35:23;16.20;54.00
70807;DHT22;58882;52.170;5.386;2023-04-01T20:38:48;16.10;54.00
70807;DHT22;58882;52.170;5.386;2023-04-01T20:41:54;16.10;53.90
70807;DHT22;58882;52.170;5.386;2023-04-01T20:44:42;16.00;54.00
70807;DHT22;58882;52.170;5.386;2023-04-01T20:51:05;15.90;54.10
70807;DHT22;58882;52.170;5.386;2023-04-01T21:15:05;15.80;54.60
70807;DHT22;58882;52.170;5.386;2023-04-01T21:21:33;15.70;54.80
70807;DHT22;58882;52.170;5.386;2023-04-01T21:49:51;15.60;55.00
70807;DHT22;58882;52.170;5.386;2023-04-01T22:12:01;15.30;55.40
70807;DHT22;58882;52.170;5.386;2023-04-01T22:14:53;15.30;55.40
70807;DHT22;58882;52.170;5.386;2023-04-01T22:17:54;15.30;55.40
70807;DHT22;58882;52.170;5.386;2023-04-01T22:23:43;15.30;55.30
70807;DHT22;58882;52.170;5.386;2023-04-01T22:26:42;15.20;55.30
70807;DHT22;58882;52.170;5.386;2023-04-01T22:32:26;15.20;55.40
70807;DHT22;58882;52.170;5.386;2023-04-01T22:41:36;15.10;55.40
70807;DHT22;58882;52.170;5.386;2023-04-01T22:47:33;15.10;55.60
70807;DHT22;58882;52.170;5.386;2023-04-01T22:50:25;15.10;55.40
70807;DHT22;58882;52.170;5.386;2023-04-01T23:00:04;15.00;55.20
70807;DHT22;58882;52.170;5.386;2023-04-01T23:03:08;15.00;55.40
70807;DHT22;58882;52.170;5.386;2023-04-01T23:05:59;15.00;55.40
70807;DHT22;58882;52.170;5.386;2023-04-01T23:17:47;14.90;55.30
70807;DHT22;58882;52.170;5.386;2023-04-01T23:20:57;15.00;55.40
70807;DHT22;58882;52.170;5.386;2023-04-01T23:27:06;15.00;55.60
70807;DHT22;58882;52.170;5.386;2023-04-01T23:29:50;15.00;55.20
70807;DHT22;58882;52.170;5.386;2023-04-01T23:32:37;15.00;55.20
70807;DHT22;58882;52.170;5.386;2023-04-01T23:35:17;15.00;55.20
70807;DHT22;58882;52.170;5.386;2023-04-01T23:38:11;15.00;55.20
70807;DHT22;58882;52.170;5.386;2023-04-01T23:40:47;14.90;55.20
70807;DHT22;58882;52.170;5.386;2023-04-01T23:43:43;14.90;55.20
70807;DHT22;58882;52.170;5.386;2023-04-01T23:46:25;14.90;55.20
70807;DHT22;58882;52.170;5.386;2023-04-01T23:49:13;14.90;55.10
70807;DHT22;58882;52.170;5.386;2023-04-01T23:52:16;14.90;55.10
